sensor_id;sensor_type;location;lat;lon;timestamp;temperature;humidity
11188;DHT22;5650;52.700;7.306;2023-02-25T00:00:54;4.60;99.90
11188;DHT22;5650;52.700;7.306;2023-02-25T00:03:24;4.60;99.90
11188;DHT22;5650;52.700;7.306;2023-02-25T00:05:51;4.60;99.90
11188;DHT22;5650;52.700;7.306;2023-02-25T00:08:18;4.70;99.90
11188;DHT22;5650;52.700;7.306;2023-02-25T00:10:57;4.60;99.90
11188;DHT22;5650;52.700;7.306;2023-02-25T00:13:26;4.60;99.90
11188;DHT22;5650;52.700;7.306;2023-02-25T00:15:54;4.70;99.90
11188;DHT22;5650;52.700;7.306;2023-02-25T00:18:26;4.70;99.90
11188;DHT22;5650;52.700;7.306;2023-02-25T00:20:53;4.70;99.90
11188;DHT22;5650;52.700;7.306;2023-02-25T00:23:21;4.80;99.90
11188;DHT22;5650;52.700;7.306;2023-02-25T00:25:57;4.80;99.90
11188;DHT22;5650;52.700;7.306;2023-02-25T00:28:24;4.80;99.90
11188;DHT22;5650;52.700;7.306;2023-02-25T00:30:56;4.80;99.90
11188;DHT22;5650;52.700;7.306;2023-02-25T00:33:23;4.80;99.90
11188;DHT22;5650;52.700;7.306;2023-02-25T00:35:53;4.90;99.90
11188;DHT22;5650;52.700;7.306;2023-02-25T00:38:20;4.90;99.90
11188;DHT22;5650;52.700;7.306;2023-02-25T00:40:50;4.90;99.90
11188;DHT22;5650;52.700;7.306;2023-02-25T00:43:17;4.90;99.90
11188;DHT22;5650;52.700;7.306;2023-02-25T00:45:45;4.90;99.90
11188;DHT22;5650;52.700;7.306;2023-02-25T00:48:15;4.90;99.90
11188;DHT22;5650;52.700;7.306;2023-02-25T00:50:42;4.90;99.90
11188;DHT22;5650;52.700;7.306;2023-02-25T00:53:09;4.90;99.90
11188;DHT22;5650;52.700;7.306;2023-02-25T00:55:37;4.80;99.90
11188;DHT22;5650;52.700;7.306;2023-02-25T00:58:06;4.80;99.90
11188;DHT22;5650;52.700;7.306;2023-02-25T01:00:35;4.80;99.90
11188;DHT22;5650;52.700;7.306;2023-02-25T01:03:03;4.70;99.90
11188;DHT22;5650;52.700;7.306;2023-02-25T01:05:30;4.80;99.90
11188;DHT22;5650;52.700;7.306;2023-02-25T01:08:00;4.80;99.90
11188;DHT22;5650;52.700;7.306;2023-02-25T01:10:30;4.70;99.90
11188;DHT22;5650;52.700;7.306;2023-02-25T01:13:01;4.70;99.90
11188;DHT22;5650;52.700;7.306;2023-02-25T01:15:34;4.70;99.90
11188;DHT22;5650;52.700;7.306;2023-02-25T01:18:01;4.70;99.90
11188;DHT22;5650;52.700;7.306;2023-02-25T01:20:28;4.70;99.90
11188;DHT22;5650;52.700;7.306;2023-02-25T01:22:56;4.70;99.90
11188;DHT22;5650;52.700;7.306;2023-02-25T01:25:25;4.60;99.90
11188;DHT22;5650;52.700;7.306;2023-02-25T01:27:58;4.60;99.90
11188;DHT22;5650;52.700;7.306;2023-02-25T01:30:30;4.60;99.90
11188;DHT22;5650;52.700;7.306;2023-02-25T01:33:00;4.60;99.90
11188;DHT22;5650;52.700;7.306;2023-02-25T01:35:34;4.60;99.90
11188;DHT22;5650;52.700;7.306;2023-02-25T01:38:02;4.60;99.90
11188;DHT22;5650;52.700;7.306;2023-02-25T01:40:30;4.60;99.90
11188;DHT22;5650;52.700;7.306;2023-02-25T01:42:57;4.60;99.90
11188;DHT22;5650;52.700;7.306;2023-02-25T01:45:30;4.60;99.90
11188;DHT22;5650;52.700;7.306;2023-02-25T01:48:04;4.60;99.90
11188;DHT22;5650;52.700;7.306;2023-02-25T01:50:41;4.50;99.90
11188;DHT22;5650;52.700;7.306;2023-02-25T01:53:09;4.50;99.90
11188;DHT22;5650;52.700;7.306;2023-02-25T01:55:38;4.50;99.90
11188;DHT22;5650;52.700;7.306;2023-02-25T01:58:07;4.50;99.90
11188;DHT22;5650;52.700;7.306;2023-02-25T02:00:34;4.40;99.90
11188;DHT22;5650;52.700;7.306;2023-02-25T02:03:04;4.50;99.90
11188;DHT22;5650;52.700;7.306;2023-02-25T02:05:51;4.40;99.90
11188;DHT22;5650;52.700;7.306;2023-02-25T02:08:21;4.30;99.90
11188;DHT22;5650;52.700;7.306;2023-02-25T02:10:49;4.30;99.90
11188;DHT22;5650;52.700;7.306;2023-02-25T02:13:19;4.30;99.90
11188;DHT22;5650;52.700;7.306;2023-02-25T02:15:55;4.30;99.90
11188;DHT22;5650;52.700;7.306;2023-02-25T02:18:29;4.30;99.90
11188;DHT22;5650;52.700;7.306;2023-02-25T02:21:08;4.30;99.90
11188;DHT22;5650;52.700;7.306;2023-02-25T02:26:53;4.30;99.90
11188;DHT22;5650;52.700;7.306;2023-02-25T02:30:02;4.40;99.90
11188;DHT22;5650;52.700;7.306;2023-02-25T02:32:39;4.40;99.90
11188;DHT22;5650;52.700;7.306;2023-02-25T02:35:18;4.40;99.90
11188;DHT22;5650;52.700;7.306;2023-02-25T02:37:54;4.40;99.90
11188;DHT22;5650;52.700;7.306;2023-02-25T02:40:42;4.40;99.90
11188;DHT22;5650;52.700;7.306;2023-02-25T02:43:26;4.40;99.90
11188;DHT22;5650;52.700;7.306;2023-02-25T02:46:03;4.40;99.90
11188;DHT22;5650;52.700;7.306;2023-02-25T02:48:35;4.50;99.90
11188;DHT22;5650;52.700;7.306;2023-02-25T02:51:10;4.50;99.90
11188;DHT22;5650;52.700;7.306;2023-02-25T02:53:43;4.50;99.90
11188;DHT22;5650;52.700;7.306;2023-02-25T02:56:13;4.60;99.90
11188;DHT22;5650;52.700;7.306;2023-02-25T02:58:43;4.60;99.90
11188;DHT22;5650;52.700;7.306;2023-02-25T03:01:15;4.60;99.90
11188;DHT22;5650;52.700;7.306;2023-02-25T03:03:46;4.60;99.90
11188;DHT22;5650;52.700;7.306;2023-02-25T03:06:15;4.60;99.90
11188;DHT22;5650;52.700;7.306;2023-02-25T03:08:45;4.60;99.90
11188;DHT22;5650;52.700;7.306;2023-02-25T03:11:14;4.60;99.90
11188;DHT22;5650;52.700;7.306;2023-02-25T03:13:42;4.60;99.90
11188;DHT22;5650;52.700;7.306;2023-02-25T03:16:13;4.60;99.90
11188;DHT22;5650;52.700;7.306;2023-02-25T03:18:50;4.60;99.90
11188;DHT22;5650;52.700;7.306;2023-02-25T03:21:21;4.60;99.90
11188;DHT22;5650;52.700;7.306;2023-02-25T03:23:50;4.60;99.90
11188;DHT22;5650;52.700;7.306;2023-02-25T03:26:22;4.50;99.90
11188;DHT22;5650;52.700;7.306;2023-02-25T03:28:49;4.50;99.90
11188;DHT22;5650;52.700;7.306;2023-02-25T03:31:20;4.50;99.90
11188;DHT22;5650;52.700;7.306;2023-02-25T03:33:53;4.50;99.90
11188;DHT22;5650;52.700;7.306;2023-02-25T03:36:25;4.50;99.90
11188;DHT22;5650;52.700;7.306;2023-02-25T03:38:59;4.50;99.90
11188;DHT22;5650;52.700;7.306;2023-02-25T03:41:35;4.50;99.90
11188;DHT22;5650;52.700;7.306;2023-02-25T03:44:07;4.50;99.90
11188;DHT22;5650;52.700;7.306;2023-02-25T03:46:38;4.50;99.90
11188;DHT22;5650;52.700;7.306;2023-02-25T03:49:11;4.50;99.90
11188;DHT22;5650;52.700;7.306;2023-02-25T03:51:42;4.50;99.90
11188;DHT22;5650;52.700;7.306;2023-02-25T03:54:13;4.50;99.90
11188;DHT22;5650;52.700;7.306;2023-02-25T03:56:47;4.50;99.90
11188;DHT22;5650;52.700;7.306;2023-02-25T03:59:15;4.50;99.90
11188;DHT22;5650;52.700;7.306;2023-02-25T04:01:45;4.40;99.90
11188;DHT22;5650;52.700;7.306;2023-02-25T04:04:15;4.40;99.90
11188;DHT22;5650;52.700;7.306;2023-02-25T04:06:42;4.40;99.90
11188;DHT22;5650;52.700;7.306;2023-02-25T04:09:09;4.30;99.90
11188;DHT22;5650;52.700;7.306;2023-02-25T04:11:38;4.30;99.90
11188;DHT22;5650;52.700;7.306;2023-02-25T04:14:05;4.30;99.90
11188;DHT22;5650;52.700;7.306;2023-02-25T04:16:33;4.30;99.90
11188;DHT22;5650;52.700;7.306;2023-02-25T04:19:00;4.30;99.90
11188;DHT22;5650;52.700;7.306;2023-02-25T04:21:34;4.30;99.90
11188;DHT22;5650;52.700;7.306;2023-02-25T04:24:08;4.30;99.90
11188;DHT22;5650;52.700;7.306;2023-02-25T04:26:36;4.30;99.90
11188;DHT22;5650;52.700;7.306;2023-02-25T04:29:15;4.30;99.90
11188;DHT22;5650;52.700;7.306;2023-02-25T04:31:42;4.30;99.90
11188;DHT22;5650;52.700;7.306;2023-02-25T04:34:12;4.30;99.90
11188;DHT22;5650;52.700;7.306;2023-02-25T04:36:45;4.30;99.90
11188;DHT22;5650;52.700;7.306;2023-02-25T04:39:16;4.30;99.90
11188;DHT22;5650;52.700;7.306;2023-02-25T04:41:44;4.30;99.90
11188;DHT22;5650;52.700;7.306;2023-02-25T04:44:11;4.40;99.90
11188;DHT22;5650;52.700;7.306;2023-02-25T04:46:42;4.40;99.90
11188;DHT22;5650;52.700;7.306;2023-02-25T04:49:12;4.40;99.90
11188;DHT22;5650;52.700;7.306;2023-02-25T04:51:39;4.40;99.90
11188;DHT22;5650;52.700;7.306;2023-02-25T04:54:11;4.40;99.90
11188;DHT22;5650;52.700;7.306;2023-02-25T04:56:38;4.30;99.90
11188;DHT22;5650;52.700;7.306;2023-02-25T04:59:08;4.30;99.90
11188;DHT22;5650;52.700;7.306;2023-02-25T05:01:36;4.30;99.90
11188;DHT22;5650;52.700;7.306;2023-02-25T05:04:04;4.30;99.90
11188;DHT22;5650;52.700;7.306;2023-02-25T05:06:48;4.30;99.90
11188;DHT22;5650;52.700;7.306;2023-02-25T05:09:16;4.30;99.90
11188;DHT22;5650;52.700;7.306;2023-02-25T05:11:45;4.30;99.90
11188;DHT22;5650;52.700;7.306;2023-02-25T05:14:15;4.30;99.90
11188;DHT22;5650;52.700;7.306;2023-02-25T05:16:42;4.30;99.90
11188;DHT22;5650;52.700;7.306;2023-02-25T05:19:14;4.30;99.90
11188;DHT22;5650;52.700;7.306;2023-02-25T05:21:41;4.30;99.90
11188;DHT22;5650;52.700;7.306;2023-02-25T05:24:17;4.30;99.90
11188;DHT22;5650;52.700;7.306;2023-02-25T05:26:44;4.30;99.90
11188;DHT22;5650;52.700;7.306;2023-02-25T05:29:12;4.30;99.90
11188;DHT22;5650;52.700;7.306;2023-02-25T05:31:39;4.30;99.90
11188;DHT22;5650;52.700;7.306;2023-02-25T05:34:09;4.30;99.90
11188;DHT22;5650;52.700;7.306;2023-02-25T05:36:36;4.30;99.90
11188;DHT22;5650;52.700;7.306;2023-02-25T05:39:11;4.30;99.90
11188;DHT22;5650;52.700;7.306;2023-02-25T05:41:40;4.30;99.90
11188;DHT22;5650;52.700;7.306;2023-02-25T05:44:16;4.30;99.90
11188;DHT22;5650;52.700;7.306;2023-02-25T05:46:43;4.30;99.90
11188;DHT22;5650;52.700;7.306;2023-02-25T05:49:13;4.30;99.90
11188;DHT22;5650;52.700;7.306;2023-02-25T05:51:43;4.30;99.90
11188;DHT22;5650;52.700;7.306;2023-02-25T05:54:16;4.20;99.90
11188;DHT22;5650;52.700;7.306;2023-02-25T05:56:45;4.30;99.90
11188;DHT22;5650;52.700;7.306;2023-02-25T05:59:16;4.20;99.90
11188;DHT22;5650;52.700;7.306;2023-02-25T06:01:44;4.20;99.90
11188;DHT22;5650;52.700;7.306;2023-02-25T06:04:13;4.20;99.90
11188;DHT22;5650;52.700;7.306;2023-02-25T06:06:44;4.20;99.90
11188;DHT22;5650;52.700;7.306;2023-02-25T06:09:16;4.20;99.90
11188;DHT22;5650;52.700;7.306;2023-02-25T06:11:47;4.20;99.90
11188;DHT22;5650;52.700;7.306;2023-02-25T06:14:15;4.20;99.90
11188;DHT22;5650;52.700;7.306;2023-02-25T06:16:42;4.20;99.90
11188;DHT22;5650;52.700;7.306;2023-02-25T06:19:11;4.20;99.90
11188;DHT22;5650;52.700;7.306;2023-02-25T06:21:38;4.20;99.90
11188;DHT22;5650;52.700;7.306;2023-02-25T06:24:06;4.20;99.90
11188;DHT22;5650;52.700;7.306;2023-02-25T06:26:33;4.20;99.90
11188;DHT22;5650;52.700;7.306;2023-02-25T06:29:13;4.20;99.90
11188;DHT22;5650;52.700;7.306;2023-02-25T06:31:43;4.20;99.90
11188;DHT22;5650;52.700;7.306;2023-02-25T06:34:17;4.20;99.90
11188;DHT22;5650;52.700;7.306;2023-02-25T06:36:47;4.20;99.90
11188;DHT22;5650;52.700;7.306;2023-02-25T06:39:14;4.20;99.90
11188;DHT22;5650;52.700;7.306;2023-02-25T06:41:42;4.20;99.90
11188;DHT22;5650;52.700;7.306;2023-02-25T06:44:09;4.20;99.90
11188;DHT22;5650;52.700;7.306;2023-02-25T06:46:41;4.20;99.90
11188;DHT22;5650;52.700;7.306;2023-02-25T06:49:17;4.20;99.90
11188;DHT22;5650;52.700;7.306;2023-02-25T06:51:47;4.20;99.90
11188;DHT22;5650;52.700;7.306;2023-02-25T06:54:14;4.20;99.90
11188;DHT22;5650;52.700;7.306;2023-02-25T06:56:42;4.20;99.90
11188;DHT22;5650;52.700;7.306;2023-02-25T06:59:15;4.20;99.90
11188;DHT22;5650;52.700;7.306;2023-02-25T07:01:44;4.20;99.90
11188;DHT22;5650;52.700;7.306;2023-02-25T07:04:14;4.30;99.90
11188;DHT22;5650;52.700;7.306;2023-02-25T07:06:42;4.30;99.90
11188;DHT22;5650;52.700;7.306;2023-02-25T07:09:09;4.30;99.90
11188;DHT22;5650;52.700;7.306;2023-02-25T07:11:36;4.30;99.90
11188;DHT22;5650;52.700;7.306;2023-02-25T07:14:05;4.30;99.90
11188;DHT22;5650;52.700;7.306;2023-02-25T07:16:32;4.30;99.90
11188;DHT22;5650;52.700;7.306;2023-02-25T07:19:01;4.40;99.90
11188;DHT22;5650;52.700;7.306;2023-02-25T07:21:29;4.30;99.90
11188;DHT22;5650;52.700;7.306;2023-02-25T07:23:56;4.40;99.90
11188;DHT22;5650;52.700;7.306;2023-02-25T07:26:24;4.40;99.90
11188;DHT22;5650;52.700;7.306;2023-02-25T07:28:53;4.40;99.90
11188;DHT22;5650;52.700;7.306;2023-02-25T07:31:21;4.50;99.90
11188;DHT22;5650;52.700;7.306;2023-02-25T07:33:49;4.60;99.90
11188;DHT22;5650;52.700;7.306;2023-02-25T07:36:18;4.60;99.90
11188;DHT22;5650;52.700;7.306;2023-02-25T07:38:46;4.60;99.90
11188;DHT22;5650;52.700;7.306;2023-02-25T07:41:15;4.70;99.90
11188;DHT22;5650;52.700;7.306;2023-02-25T07:43:43;4.70;99.90
11188;DHT22;5650;52.700;7.306;2023-02-25T07:46:11;4.70;99.90
11188;DHT22;5650;52.700;7.306;2023-02-25T07:48:39;4.70;99.90
11188;DHT22;5650;52.700;7.306;2023-02-25T07:51:08;4.70;99.90
11188;DHT22;5650;52.700;7.306;2023-02-25T07:53:38;4.70;99.90
11188;DHT22;5650;52.700;7.306;2023-02-25T07:56:05;4.70;99.90
11188;DHT22;5650;52.700;7.306;2023-02-25T07:58:34;4.80;99.90
11188;DHT22;5650;52.700;7.306;2023-02-25T08:01:06;4.90;99.90
11188;DHT22;5650;52.700;7.306;2023-02-25T08:03:33;5.00;99.90
11188;DHT22;5650;52.700;7.306;2023-02-25T08:06:01;5.00;99.90
11188;DHT22;5650;52.700;7.306;2023-02-25T08:08:32;5.10;99.90
11188;DHT22;5650;52.700;7.306;2023-02-25T08:11:05;5.10;99.90
11188;DHT22;5650;52.700;7.306;2023-02-25T08:13:33;5.20;99.90
11188;DHT22;5650;52.700;7.306;2023-02-25T08:16:03;5.20;99.90
11188;DHT22;5650;52.700;7.306;2023-02-25T08:18:30;5.30;99.90
11188;DHT22;5650;52.700;7.306;2023-02-25T08:20:58;5.30;99.90
11188;DHT22;5650;52.700;7.306;2023-02-25T08:23:25;5.40;99.90
11188;DHT22;5650;52.700;7.306;2023-02-25T08:25:59;5.30;99.90
11188;DHT22;5650;52.700;7.306;2023-02-25T08:28:32;5.30;99.90
11188;DHT22;5650;52.700;7.306;2023-02-25T08:30:59;5.50;99.90
11188;DHT22;5650;52.700;7.306;2023-02-25T08:33:28;5.60;99.90
11188;DHT22;5650;52.700;7.306;2023-02-25T08:36:04;5.60;99.90
11188;DHT22;5650;52.700;7.306;2023-02-25T08:38:31;5.60;99.90
11188;DHT22;5650;52.700;7.306;2023-02-25T08:40:59;5.60;99.90
11188;DHT22;5650;52.700;7.306;2023-02-25T08:43:26;5.50;99.90
11188;DHT22;5650;52.700;7.306;2023-02-25T08:45:55;5.50;99.90
11188;DHT22;5650;52.700;7.306;2023-02-25T08:48:28;5.50;99.90
11188;DHT22;5650;52.700;7.306;2023-02-25T08:51:03;5.50;99.90
11188;DHT22;5650;52.700;7.306;2023-02-25T08:53:33;5.40;99.90
11188;DHT22;5650;52.700;7.306;2023-02-25T08:56:02;5.40;99.90
11188;DHT22;5650;52.700;7.306;2023-02-25T08:58:30;5.40;99.90
11188;DHT22;5650;52.700;7.306;2023-02-25T09:00:58;5.30;99.90
11188;DHT22;5650;52.700;7.306;2023-02-25T09:03:26;5.30;99.90
11188;DHT22;5650;52.700;7.306;2023-02-25T09:05:59;5.20;99.90
11188;DHT22;5650;52.700;7.306;2023-02-25T09:08:29;5.20;99.90
11188;DHT22;5650;52.700;7.306;2023-02-25T09:10:57;5.30;99.90
11188;DHT22;5650;52.700;7.306;2023-02-25T09:13:24;5.30;99.90
11188;DHT22;5650;52.700;7.306;2023-02-25T09:15:55;5.40;99.90
11188;DHT22;5650;52.700;7.306;2023-02-25T09:18:27;5.40;99.90
11188;DHT22;5650;52.700;7.306;2023-02-25T09:21:00;5.50;99.90
11188;DHT22;5650;52.700;7.306;2023-02-25T09:23:30;5.60;99.90
11188;DHT22;5650;52.700;7.306;2023-02-25T09:26:01;5.50;99.90
11188;DHT22;5650;52.700;7.306;2023-02-25T09:28:32;5.60;99.90
11188;DHT22;5650;52.700;7.306;2023-02-25T09:31:02;5.50;99.90
11188;DHT22;5650;52.700;7.306;2023-02-25T09:33:32;5.60;99.90
11188;DHT22;5650;52.700;7.306;2023-02-25T09:36:04;5.60;99.90
11188;DHT22;5650;52.700;7.306;2023-02-25T09:38:33;5.70;99.90
11188;DHT22;5650;52.700;7.306;2023-02-25T09:41:00;5.70;99.90
11188;DHT22;5650;52.700;7.306;2023-02-25T09:43:30;5.80;99.90
11188;DHT22;5650;52.700;7.306;2023-02-25T09:46:05;5.90;99.90
11188;DHT22;5650;52.700;7.306;2023-02-25T09:48:48;6.00;99.90
11188;DHT22;5650;52.700;7.306;2023-02-25T09:51:19;6.00;99.90
11188;DHT22;5650;52.700;7.306;2023-02-25T09:53:51;5.90;99.90
11188;DHT22;5650;52.700;7.306;2023-02-25T09:56:20;6.00;99.90
11188;DHT22;5650;52.700;7.306;2023-02-25T09:58:51;6.10;99.90
11188;DHT22;5650;52.700;7.306;2023-02-25T10:01:27;6.00;99.90
11188;DHT22;5650;52.700;7.306;2023-02-25T10:04:05;6.00;99.90
11188;DHT22;5650;52.700;7.306;2023-02-25T10:06:43;6.00;99.90
11188;DHT22;5650;52.700;7.306;2023-02-25T10:09:20;5.90;99.90
11188;DHT22;5650;52.700;7.306;2023-02-25T10:12:03;5.90;99.90
11188;DHT22;5650;52.700;7.306;2023-02-25T10:15:03;5.90;99.90
11188;DHT22;5650;52.700;7.306;2023-02-25T10:17:43;6.00;99.90
11188;DHT22;5650;52.700;7.306;2023-02-25T10:20:36;6.00;99.90
11188;DHT22;5650;52.700;7.306;2023-02-25T10:23:15;6.00;99.90
11188;DHT22;5650;52.700;7.306;2023-02-25T10:25:48;6.00;99.90
11188;DHT22;5650;52.700;7.306;2023-02-25T10:28:21;6.00;99.90
11188;DHT22;5650;52.700;7.306;2023-02-25T10:30:55;6.00;99.90
11188;DHT22;5650;52.700;7.306;2023-02-25T10:33:26;6.10;99.90
11188;DHT22;5650;52.700;7.306;2023-02-25T10:36:02;6.00;99.90
11188;DHT22;5650;52.700;7.306;2023-02-25T10:38:46;6.00;97.40
11188;DHT22;5650;52.700;7.306;2023-02-25T10:41:18;6.00;95.80
11188;DHT22;5650;52.700;7.306;2023-02-25T10:43:49;6.00;95.80
11188;DHT22;5650;52.700;7.306;2023-02-25T10:46:20;6.20;96.70
11188;DHT22;5650;52.700;7.306;2023-02-25T10:48:55;6.30;96.10
11188;DHT22;5650;52.700;7.306;2023-02-25T10:51:30;6.30;94.20
11188;DHT22;5650;52.700;7.306;2023-02-25T10:54:04;6.30;94.00
11188;DHT22;5650;52.700;7.306;2023-02-25T10:56:37;6.40;94.60
11188;DHT22;5650;52.700;7.306;2023-02-25T10:59:23;6.50;95.10
11188;DHT22;5650;52.700;7.306;2023-02-25T11:01:59;6.50;93.30
11188;DHT22;5650;52.700;7.306;2023-02-25T11:04:31;6.50;94.00
11188;DHT22;5650;52.700;7.306;2023-02-25T11:07:00;6.60;95.00
11188;DHT22;5650;52.700;7.306;2023-02-25T11:09:33;6.60;92.80
11188;DHT22;5650;52.700;7.306;2023-02-25T11:12:17;6.60;92.00
11188;DHT22;5650;52.700;7.306;2023-02-25T11:14:45;6.50;92.40
11188;DHT22;5650;52.700;7.306;2023-02-25T11:17:15;6.50;93.00
11188;DHT22;5650;52.700;7.306;2023-02-25T11:19:46;6.60;93.40
11188;DHT22;5650;52.700;7.306;2023-02-25T11:22:18;6.60;93.50
11188;DHT22;5650;52.700;7.306;2023-02-25T11:24:55;6.60;93.70
11188;DHT22;5650;52.700;7.306;2023-02-25T11:27:31;6.70;94.30
11188;DHT22;5650;52.700;7.306;2023-02-25T11:30:03;6.70;92.80
11188;DHT22;5650;52.700;7.306;2023-02-25T11:32:31;6.60;91.40
11188;DHT22;5650;52.700;7.306;2023-02-25T11:35:02;6.60;91.70
11188;DHT22;5650;52.700;7.306;2023-02-25T11:37:39;6.50;92.10
11188;DHT22;5650;52.700;7.306;2023-02-25T11:40:24;6.40;92.40
11188;DHT22;5650;52.700;7.306;2023-02-25T11:43:12;6.40;93.10
11188;DHT22;5650;52.700;7.306;2023-02-25T11:45:51;6.40;93.90
11188;DHT22;5650;52.700;7.306;2023-02-25T11:48:22;6.60;94.20
11188;DHT22;5650;52.700;7.306;2023-02-25T11:50:59;6.70;93.90
11188;DHT22;5650;52.700;7.306;2023-02-25T11:53:48;6.70;93.40
11188;DHT22;5650;52.700;7.306;2023-02-25T11:56:24;6.70;94.40
11188;DHT22;5650;52.700;7.306;2023-02-25T11:59:01;6.80;94.10
11188;DHT22;5650;52.700;7.306;2023-02-25T12:01:44;6.80;93.40
11188;DHT22;5650;52.700;7.306;2023-02-25T12:11:18;6.80;93.30
11188;DHT22;5650;52.700;7.306;2023-02-25T12:14:34;6.70;93.20
11188;DHT22;5650;52.700;7.306;2023-02-25T12:17:30;6.60;93.50
11188;DHT22;5650;52.700;7.306;2023-02-25T12:26:42;6.70;93.30
11188;DHT22;5650;52.700;7.306;2023-02-25T12:29:44;6.80;92.70
11188;DHT22;5650;52.700;7.306;2023-02-25T12:32:30;6.80;92.40
11188;DHT22;5650;52.700;7.306;2023-02-25T12:35:33;6.90;92.10
11188;DHT22;5650;52.700;7.306;2023-02-25T12:38:41;6.90;92.70
11188;DHT22;5650;52.700;7.306;2023-02-25T12:41:30;6.80;92.20
11188;DHT22;5650;52.700;7.306;2023-02-25T12:44:17;6.70;92.20
11188;DHT22;5650;52.700;7.306;2023-02-25T12:47:00;6.80;93.00
11188;DHT22;5650;52.700;7.306;2023-02-25T12:49:53;6.80;93.30
11188;DHT22;5650;52.700;7.306;2023-02-25T12:52:38;6.80;93.70
11188;DHT22;5650;52.700;7.306;2023-02-25T12:58:27;6.80;90.90
11188;DHT22;5650;52.700;7.306;2023-02-25T13:01:09;6.80;91.40
11188;DHT22;5650;52.700;7.306;2023-02-25T13:10:03;6.60;90.90
11188;DHT22;5650;52.700;7.306;2023-02-25T13:12:50;6.70;91.30
11188;DHT22;5650;52.700;7.306;2023-02-25T13:15:28;6.70;91.60
11188;DHT22;5650;52.700;7.306;2023-02-25T13:18:24;6.70;91.80
11188;DHT22;5650;52.700;7.306;2023-02-25T13:21:08;6.70;92.20
11188;DHT22;5650;52.700;7.306;2023-02-25T13:23:58;6.70;91.20
11188;DHT22;5650;52.700;7.306;2023-02-25T13:27:03;6.60;89.70
11188;DHT22;5650;52.700;7.306;2023-02-25T13:29:45;6.50;88.30
11188;DHT22;5650;52.700;7.306;2023-02-25T13:32:26;6.50;89.10
11188;DHT22;5650;52.700;7.306;2023-02-25T13:35:10;6.50;88.60
11188;DHT22;5650;52.700;7.306;2023-02-25T13:37:45;6.50;88.50
11188;DHT22;5650;52.700;7.306;2023-02-25T13:40:24;6.50;89.80
11188;DHT22;5650;52.700;7.306;2023-02-25T13:43:06;6.60;90.10
11188;DHT22;5650;52.700;7.306;2023-02-25T13:45:48;6.60;90.00
11188;DHT22;5650;52.700;7.306;2023-02-25T13:55:07;6.60;89.00
11188;DHT22;5650;52.700;7.306;2023-02-25T13:58:05;6.60;89.60
11188;DHT22;5650;52.700;7.306;2023-02-25T14:01:04;6.60;89.60
11188;DHT22;5650;52.700;7.306;2023-02-25T14:07:04;6.50;90.10
11188;DHT22;5650;52.700;7.306;2023-02-25T14:09:41;6.60;90.80
11188;DHT22;5650;52.700;7.306;2023-02-25T14:12:24;6.70;91.10
11188;DHT22;5650;52.700;7.306;2023-02-25T14:15:20;6.70;90.00
11188;DHT22;5650;52.700;7.306;2023-02-25T14:21:11;6.70;89.20
11188;DHT22;5650;52.700;7.306;2023-02-25T14:23:51;6.60;86.60
11188;DHT22;5650;52.700;7.306;2023-02-25T14:26:29;6.60;86.10
11188;DHT22;5650;52.700;7.306;2023-02-25T14:29:12;6.50;87.80
11188;DHT22;5650;52.700;7.306;2023-02-25T14:31:53;6.40;86.90
11188;DHT22;5650;52.700;7.306;2023-02-25T14:34:40;6.40;87.50
11188;DHT22;5650;52.700;7.306;2023-02-25T14:37:28;6.40;89.00
11188;DHT22;5650;52.700;7.306;2023-02-25T14:40:12;6.30;88.50
11188;DHT22;5650;52.700;7.306;2023-02-25T14:43:02;6.30;89.60
11188;DHT22;5650;52.700;7.306;2023-02-25T14:45:36;6.40;90.20
11188;DHT22;5650;52.700;7.306;2023-02-25T14:48:10;6.40;89.70
11188;DHT22;5650;52.700;7.306;2023-02-25T14:50:44;6.40;89.20
11188;DHT22;5650;52.700;7.306;2023-02-25T14:53:33;6.30;89.00
11188;DHT22;5650;52.700;7.306;2023-02-25T14:56:25;6.20;89.30
11188;DHT22;5650;52.700;7.306;2023-02-25T14:59:22;6.20;90.20
11188;DHT22;5650;52.700;7.306;2023-02-25T15:05:19;6.10;91.30
11188;DHT22;5650;52.700;7.306;2023-02-25T15:08:00;6.20;91.70
11188;DHT22;5650;52.700;7.306;2023-02-25T15:10:41;6.20;92.10
11188;DHT22;5650;52.700;7.306;2023-02-25T15:19:27;6.30;92.70
11188;DHT22;5650;52.700;7.306;2023-02-25T15:22:18;6.20;92.70
11188;DHT22;5650;52.700;7.306;2023-02-25T15:24:47;6.20;93.00
11188;DHT22;5650;52.700;7.306;2023-02-25T15:30:24;6.10;92.80
11188;DHT22;5650;52.700;7.306;2023-02-25T15:33:21;6.10;92.60
11188;DHT22;5650;52.700;7.306;2023-02-25T15:36:20;6.10;92.90
11188;DHT22;5650;52.700;7.306;2023-02-25T15:38:49;6.00;93.40
11188;DHT22;5650;52.700;7.306;2023-02-25T15:41:37;6.00;93.80
11188;DHT22;5650;52.700;7.306;2023-02-25T15:44:32;5.90;93.40
11188;DHT22;5650;52.700;7.306;2023-02-25T15:47:28;5.80;93.60
11188;DHT22;5650;52.700;7.306;2023-02-25T15:49:57;5.80;93.90
11188;DHT22;5650;52.700;7.306;2023-02-25T15:52:56;5.70;94.10
11188;DHT22;5650;52.700;7.306;2023-02-25T15:55:38;5.60;94.40
11188;DHT22;5650;52.700;7.306;2023-02-25T15:58:43;5.60;94.60
11188;DHT22;5650;52.700;7.306;2023-02-25T16:01:36;5.60;95.00
11188;DHT22;5650;52.700;7.306;2023-02-25T16:04:42;5.50;95.20
11188;DHT22;5650;52.700;7.306;2023-02-25T16:07:13;5.50;95.20
11188;DHT22;5650;52.700;7.306;2023-02-25T16:09:45;5.50;95.10
11188;DHT22;5650;52.700;7.306;2023-02-25T16:12:14;5.50;95.40
11188;DHT22;5650;52.700;7.306;2023-02-25T16:14:43;5.50;95.70
11188;DHT22;5650;52.700;7.306;2023-02-25T16:17:16;5.40;95.70
11188;DHT22;5650;52.700;7.306;2023-02-25T16:19:50;5.30;96.00
11188;DHT22;5650;52.700;7.306;2023-02-25T16:22:21;5.30;96.40
11188;DHT22;5650;52.700;7.306;2023-02-25T16:24:56;5.30;96.60
11188;DHT22;5650;52.700;7.306;2023-02-25T16:27:42;5.20;96.70
11188;DHT22;5650;52.700;7.306;2023-02-25T16:30:15;5.10;97.10
11188;DHT22;5650;52.700;7.306;2023-02-25T16:32:48;5.10;97.10
11188;DHT22;5650;52.700;7.306;2023-02-25T16:35:25;5.00;97.10
11188;DHT22;5650;52.700;7.306;2023-02-25T16:38:01;5.00;97.30
11188;DHT22;5650;52.700;7.306;2023-02-25T16:40:34;4.90;97.30
11188;DHT22;5650;52.700;7.306;2023-02-25T16:43:02;4.90;97.40
11188;DHT22;5650;52.700;7.306;2023-02-25T16:45:32;4.80;97.50
11188;DHT22;5650;52.700;7.306;2023-02-25T16:48:06;4.70;97.80
11188;DHT22;5650;52.700;7.306;2023-02-25T16:50:36;4.70;98.20
11188;DHT22;5650;52.700;7.306;2023-02-25T16:53:11;4.60;98.10
11188;DHT22;5650;52.700;7.306;2023-02-25T16:55:44;4.60;98.40
11188;DHT22;5650;52.700;7.306;2023-02-25T16:58:20;4.60;98.60
11188;DHT22;5650;52.700;7.306;2023-02-25T17:00:49;4.50;98.70
11188;DHT22;5650;52.700;7.306;2023-02-25T17:03:20;4.50;98.90
11188;DHT22;5650;52.700;7.306;2023-02-25T17:06:01;4.40;99.70
11188;DHT22;5650;52.700;7.306;2023-02-25T17:08:28;4.40;99.60
11188;DHT22;5650;52.700;7.306;2023-02-25T17:10:56;4.40;99.80
11188;DHT22;5650;52.700;7.306;2023-02-25T17:13:30;4.30;99.90
11188;DHT22;5650;52.700;7.306;2023-02-25T17:15:58;4.30;99.90
11188;DHT22;5650;52.700;7.306;2023-02-25T17:18:29;4.20;99.90
11188;DHT22;5650;52.700;7.306;2023-02-25T17:21:04;4.20;99.90
11188;DHT22;5650;52.700;7.306;2023-02-25T17:23:37;4.20;99.90
11188;DHT22;5650;52.700;7.306;2023-02-25T17:26:08;4.10;99.90
11188;DHT22;5650;52.700;7.306;2023-02-25T17:28:37;4.10;99.90
11188;DHT22;5650;52.700;7.306;2023-02-25T17:31:08;4.00;99.90
11188;DHT22;5650;52.700;7.306;2023-02-25T17:33:45;4.00;99.90
11188;DHT22;5650;52.700;7.306;2023-02-25T17:36:20;4.00;99.90
11188;DHT22;5650;52.700;7.306;2023-02-25T17:38:51;4.00;99.90